sensor_id;sensor_type;location;lat;lon;timestamp;P1;durP1;ratioP1;P2;durP2;ratioP2
7418;SDS011;3751;51.852;9.718;2022-07-04T00:00:10;3.57;;;2.37;;
7418;SDS011;3751;51.852;9.718;2022-07-04T00:02:40;3.70;;;2.60;;
7418;SDS011;3751;51.852;9.718;2022-07-04T00:05:06;2.67;;;2.20;;
7418;SDS011;3751;51.852;9.718;2022-07-04T00:07:35;3.00;;;2.50;;
7418;SDS011;3751;51.852;9.718;2022-07-04T00:10:01;3.97;;;2.60;;
7418;SDS011;3751;51.852;9.718;2022-07-04T00:12:28;3.07;;;2.33;;
7418;SDS011;3751;51.852;9.718;2022-07-04T00:14:54;3.70;;;2.70;;
7418;SDS011;3751;51.852;9.718;2022-07-04T00:17:19;6.87;;;2.77;;
7418;SDS011;3751;51.852;9.718;2022-07-04T00:19:45;5.70;;;3.10;;
7418;SDS011;3751;51.852;9.718;2022-07-04T00:22:11;2.83;;;2.63;;
7418;SDS011;3751;51.852;9.718;2022-07-04T00:24:37;2.80;;;2.60;;
7418;SDS011;3751;51.852;9.718;2022-07-04T00:27:03;3.60;;;3.07;;
7418;SDS011;3751;51.852;9.718;2022-07-04T00:29:30;3.90;;;2.80;;
7418;SDS011;3751;51.852;9.718;2022-07-04T00:31:56;2.97;;;2.70;;
7418;SDS011;3751;51.852;9.718;2022-07-04T00:34:22;5.43;;;2.63;;
7418;SDS011;3751;51.852;9.718;2022-07-04T00:36:48;3.57;;;2.67;;
7418;SDS011;3751;51.852;9.718;2022-07-04T00:39:14;4.30;;;2.63;;
7418;SDS011;3751;51.852;9.718;2022-07-04T00:41:40;5.57;;;3.17;;
7418;SDS011;3751;51.852;9.718;2022-07-04T00:44:06;2.70;;;2.47;;
7418;SDS011;3751;51.852;9.718;2022-07-04T00:46:33;4.13;;;2.83;;
7418;SDS011;3751;51.852;9.718;2022-07-04T00:48:59;3.50;;;2.50;;
7418;SDS011;3751;51.852;9.718;2022-07-04T00:51:26;6.93;;;2.73;;
7418;SDS011;3751;51.852;9.718;2022-07-04T00:53:52;5.87;;;3.30;;
7418;SDS011;3751;51.852;9.718;2022-07-04T00:56:19;5.20;;;2.77;;
7418;SDS011;3751;51.852;9.718;2022-07-04T00:58:45;5.47;;;2.90;;
7418;SDS011;3751;51.852;9.718;2022-07-04T01:01:11;3.90;;;2.83;;
7418;SDS011;3751;51.852;9.718;2022-07-04T01:03:37;3.93;;;2.30;;
7418;SDS011;3751;51.852;9.718;2022-07-04T01:06:03;3.90;;;2.47;;
7418;SDS011;3751;51.852;9.718;2022-07-04T01:08:30;3.40;;;2.80;;
7418;SDS011;3751;51.852;9.718;2022-07-04T01:10:56;3.50;;;2.90;;
7418;SDS011;3751;51.852;9.718;2022-07-04T01:13:22;2.70;;;2.50;;
7418;SDS011;3751;51.852;9.718;2022-07-04T01:15:48;6.30;;;2.53;;
7418;SDS011;3751;51.852;9.718;2022-07-04T01:18:15;3.60;;;2.97;;
7418;SDS011;3751;51.852;9.718;2022-07-04T01:20:41;3.73;;;2.83;;
7418;SDS011;3751;51.852;9.718;2022-07-04T01:23:07;3.30;;;3.00;;
7418;SDS011;3751;51.852;9.718;2022-07-04T01:25:33;3.60;;;3.03;;
7418;SDS011;3751;51.852;9.718;2022-07-04T01:27:59;3.40;;;3.00;;
7418;SDS011;3751;51.852;9.718;2022-07-04T01:30:26;4.10;;;3.00;;
7418;SDS011;3751;51.852;9.718;2022-07-04T01:32:51;4.77;;;2.90;;
7418;SDS011;3751;51.852;9.718;2022-07-04T01:35:18;3.30;;;3.00;;
7418;SDS011;3751;51.852;9.718;2022-07-04T01:37:44;3.40;;;2.80;;
7418;SDS011;3751;51.852;9.718;2022-07-04T01:40:10;4.00;;;2.80;;
7418;SDS011;3751;51.852;9.718;2022-07-04T01:42:37;5.23;;;3.00;;
7418;SDS011;3751;51.852;9.718;2022-07-04T01:45:03;3.83;;;3.10;;
7418;SDS011;3751;51.852;9.718;2022-07-04T01:47:30;5.90;;;2.87;;
7418;SDS011;3751;51.852;9.718;2022-07-04T01:49:56;3.20;;;2.80;;
7418;SDS011;3751;51.852;9.718;2022-07-04T01:52:22;3.27;;;2.80;;
7418;SDS011;3751;51.852;9.718;2022-07-04T01:54:49;4.80;;;3.10;;
7418;SDS011;3751;51.852;9.718;2022-07-04T01:57:15;3.10;;;2.53;;
7418;SDS011;3751;51.852;9.718;2022-07-04T01:59:41;3.20;;;2.70;;
7418;SDS011;3751;51.852;9.718;2022-07-04T02:02:26;3.60;;;2.93;;
7418;SDS011;3751;51.852;9.718;2022-07-04T02:04:52;4.00;;;2.60;;
7418;SDS011;3751;51.852;9.718;2022-07-04T02:07:18;2.63;;;2.43;;
7418;SDS011;3751;51.852;9.718;2022-07-04T02:09:44;4.23;;;2.73;;
7418;SDS011;3751;51.852;9.718;2022-07-04T02:12:10;5.63;;;2.67;;
7418;SDS011;3751;51.852;9.718;2022-07-04T02:14:56;4.17;;;2.60;;
7418;SDS011;3751;51.852;9.718;2022-07-04T02:17:22;3.40;;;2.80;;
7418;SDS011;3751;51.852;9.718;2022-07-04T02:19:48;2.93;;;2.40;;
7418;SDS011;3751;51.852;9.718;2022-07-04T02:22:14;5.70;;;2.90;;
7418;SDS011;3751;51.852;9.718;2022-07-04T02:24:40;7.87;;;3.33;;
7418;SDS011;3751;51.852;9.718;2022-07-04T02:27:07;3.73;;;3.30;;
7418;SDS011;3751;51.852;9.718;2022-07-04T02:29:33;3.30;;;3.00;;
7418;SDS011;3751;51.852;9.718;2022-07-04T02:31:59;5.30;;;2.80;;
7418;SDS011;3751;51.852;9.718;2022-07-04T02:34:25;5.10;;;3.20;;
7418;SDS011;3751;51.852;9.718;2022-07-04T02:36:51;4.47;;;3.47;;
7418;SDS011;3751;51.852;9.718;2022-07-04T02:39:17;4.13;;;3.40;;
7418;SDS011;3751;51.852;9.718;2022-07-04T02:41:43;4.20;;;3.00;;
7418;SDS011;3751;51.852;9.718;2022-07-04T02:44:09;5.40;;;3.10;;
7418;SDS011;3751;51.852;9.718;2022-07-04T02:46:36;4.47;;;3.20;;
7418;SDS011;3751;51.852;9.718;2022-07-04T02:49:02;5.03;;;3.30;;
7418;SDS011;3751;51.852;9.718;2022-07-04T02:51:28;4.97;;;3.70;;
7418;SDS011;3751;51.852;9.718;2022-07-04T02:53:54;4.10;;;3.27;;
7418;SDS011;3751;51.852;9.718;2022-07-04T02:56:20;5.70;;;3.30;;
7418;SDS011;3751;51.852;9.718;2022-07-04T02:58:47;5.67;;;3.30;;
7418;SDS011;3751;51.852;9.718;2022-07-04T03:01:13;3.60;;;3.07;;
7418;SDS011;3751;51.852;9.718;2022-07-04T03:03:39;5.40;;;3.20;;
7418;SDS011;3751;51.852;9.718;2022-07-04T03:06:08;3.60;;;2.77;;
7418;SDS011;3751;51.852;9.718;2022-07-04T03:08:34;2.90;;;2.70;;
7418;SDS011;3751;51.852;9.718;2022-07-04T03:11:00;4.17;;;3.77;;
7418;SDS011;3751;51.852;9.718;2022-07-04T03:13:26;4.60;;;3.50;;
7418;SDS011;3751;51.852;9.718;2022-07-04T03:15:52;3.47;;;3.17;;
7418;SDS011;3751;51.852;9.718;2022-07-04T03:18:19;5.37;;;3.80;;
7418;SDS011;3751;51.852;9.718;2022-07-04T03:20:45;5.10;;;4.60;;
7418;SDS011;3751;51.852;9.718;2022-07-04T03:23:11;5.50;;;4.00;;
7418;SDS011;3751;51.852;9.718;2022-07-04T03:25:37;4.90;;;3.80;;
7418;SDS011;3751;51.852;9.718;2022-07-04T03:28:04;5.67;;;4.87;;
7418;SDS011;3751;51.852;9.718;2022-07-04T03:30:30;4.93;;;4.53;;
7418;SDS011;3751;51.852;9.718;2022-07-04T03:32:57;13.80;;;4.80;;
7418;SDS011;3751;51.852;9.718;2022-07-04T03:35:23;8.40;;;5.70;;
7418;SDS011;3751;51.852;9.718;2022-07-04T03:37:49;6.60;;;4.93;;
7418;SDS011;3751;51.852;9.718;2022-07-04T03:40:16;7.90;;;5.23;;
7418;SDS011;3751;51.852;9.718;2022-07-04T03:42:42;5.23;;;4.63;;
7418;SDS011;3751;51.852;9.718;2022-07-04T03:45:08;7.30;;;5.10;;
7418;SDS011;3751;51.852;9.718;2022-07-04T03:47:34;6.67;;;5.40;;
7418;SDS011;3751;51.852;9.718;2022-07-04T03:50:00;6.93;;;4.93;;
7418;SDS011;3751;51.852;9.718;2022-07-04T03:52:26;9.60;;;6.50;;
7418;SDS011;3751;51.852;9.718;2022-07-04T03:54:52;7.23;;;5.13;;
7418;SDS011;3751;51.852;9.718;2022-07-04T03:57:18;10.60;;;5.50;;
7418;SDS011;3751;51.852;9.718;2022-07-04T03:59:44;10.90;;;8.03;;
7418;SDS011;3751;51.852;9.718;2022-07-04T04:02:10;5.70;;;5.20;;
7418;SDS011;3751;51.852;9.718;2022-07-04T04:04:36;10.90;;;5.17;;
7418;SDS011;3751;51.852;9.718;2022-07-04T04:07:21;11.07;;;5.17;;
7418;SDS011;3751;51.852;9.718;2022-07-04T04:09:47;6.03;;;5.23;;
7418;SDS011;3751;51.852;9.718;2022-07-04T04:12:13;7.07;;;5.00;;
7418;SDS011;3751;51.852;9.718;2022-07-04T04:14:39;6.33;;;4.90;;
7418;SDS011;3751;51.852;9.718;2022-07-04T04:17:05;6.50;;;5.00;;
7418;SDS011;3751;51.852;9.718;2022-07-04T04:19:31;7.37;;;4.90;;
7418;SDS011;3751;51.852;9.718;2022-07-04T04:21:57;9.13;;;5.53;;
7418;SDS011;3751;51.852;9.718;2022-07-04T04:24:23;8.73;;;5.23;;
7418;SDS011;3751;51.852;9.718;2022-07-04T04:26:49;5.33;;;4.83;;
7418;SDS011;3751;51.852;9.718;2022-07-04T04:29:15;5.50;;;5.00;;
7418;SDS011;3751;51.852;9.718;2022-07-04T04:31:41;5.33;;;4.60;;
7418;SDS011;3751;51.852;9.718;2022-07-04T04:34:07;5.10;;;4.60;;
7418;SDS011;3751;51.852;9.718;2022-07-04T04:36:33;7.43;;;4.67;;
7418;SDS011;3751;51.852;9.718;2022-07-04T04:38:59;5.97;;;5.37;;
7418;SDS011;3751;51.852;9.718;2022-07-04T04:41:25;10.53;;;5.30;;
7418;SDS011;3751;51.852;9.718;2022-07-04T04:43:51;6.80;;;5.00;;
7418;SDS011;3751;51.852;9.718;2022-07-04T04:46:17;7.13;;;4.70;;
7418;SDS011;3751;51.852;9.718;2022-07-04T04:48:43;7.17;;;5.10;;
7418;SDS011;3751;51.852;9.718;2022-07-04T04:51:09;7.97;;;4.40;;
7418;SDS011;3751;51.852;9.718;2022-07-04T04:53:35;8.50;;;5.40;;
7418;SDS011;3751;51.852;9.718;2022-07-04T04:56:01;7.77;;;4.90;;
7418;SDS011;3751;51.852;9.718;2022-07-04T04:58:27;5.77;;;5.17;;
7418;SDS011;3751;51.852;9.718;2022-07-04T05:00:54;5.83;;;5.23;;
7418;SDS011;3751;51.852;9.718;2022-07-04T05:03:20;5.97;;;5.37;;
7418;SDS011;3751;51.852;9.718;2022-07-04T05:05:46;7.60;;;5.00;;
7418;SDS011;3751;51.852;9.718;2022-07-04T05:08:11;5.43;;;4.93;;
7418;SDS011;3751;51.852;9.718;2022-07-04T05:10:41;6.97;;;5.40;;
7418;SDS011;3751;51.852;9.718;2022-07-04T05:13:07;5.30;;;4.80;;
7418;SDS011;3751;51.852;9.718;2022-07-04T05:15:32;7.90;;;5.53;;
7418;SDS011;3751;51.852;9.718;2022-07-04T05:17:59;6.00;;;5.40;;
7418;SDS011;3751;51.852;9.718;2022-07-04T05:20:25;8.67;;;5.80;;
7418;SDS011;3751;51.852;9.718;2022-07-04T05:22:51;6.63;;;5.70;;
7418;SDS011;3751;51.852;9.718;2022-07-04T05:25:17;8.30;;;6.37;;
7418;SDS011;3751;51.852;9.718;2022-07-04T05:27:43;6.90;;;5.00;;
7418;SDS011;3751;51.852;9.718;2022-07-04T05:30:09;6.60;;;5.13;;
7418;SDS011;3751;51.852;9.718;2022-07-04T05:32:37;6.90;;;5.23;;
7418;SDS011;3751;51.852;9.718;2022-07-04T05:35:04;8.63;;;5.10;;
7418;SDS011;3751;51.852;9.718;2022-07-04T05:37:30;6.00;;;5.50;;
7418;SDS011;3751;51.852;9.718;2022-07-04T05:39:56;7.17;;;5.93;;
7418;SDS011;3751;51.852;9.718;2022-07-04T05:42:22;8.70;;;5.20;;
7418;SDS011;3751;51.852;9.718;2022-07-04T05:44:48;9.40;;;5.20;;
7418;SDS011;3751;51.852;9.718;2022-07-04T05:47:14;6.33;;;5.63;;
7418;SDS011;3751;51.852;9.718;2022-07-04T05:49:40;5.40;;;4.90;;
7418;SDS011;3751;51.852;9.718;2022-07-04T05:52:06;6.03;;;5.43;;
7418;SDS011;3751;51.852;9.718;2022-07-04T05:54:32;6.20;;;5.60;;
7418;SDS011;3751;51.852;9.718;2022-07-04T05:56:58;5.03;;;4.63;;
7418;SDS011;3751;51.852;9.718;2022-07-04T05:59:24;6.27;;;5.67;;
7418;SDS011;3751;51.852;9.718;2022-07-04T06:01:50;5.67;;;5.17;;
7418;SDS011;3751;51.852;9.718;2022-07-04T06:04:16;8.13;;;5.47;;
7418;SDS011;3751;51.852;9.718;2022-07-04T06:06:42;6.17;;;4.80;;
7418;SDS011;3751;51.852;9.718;2022-07-04T06:09:08;5.50;;;4.90;;
7418;SDS011;3751;51.852;9.718;2022-07-04T06:11:34;5.80;;;5.27;;
7418;SDS011;3751;51.852;9.718;2022-07-04T06:14:00;6.00;;;4.70;;
7418;SDS011;3751;51.852;9.718;2022-07-04T06:16:26;6.17;;;5.37;;
7418;SDS011;3751;51.852;9.718;2022-07-04T06:18:52;6.80;;;5.17;;
7418;SDS011;3751;51.852;9.718;2022-07-04T06:21:18;5.40;;;4.90;;
7418;SDS011;3751;51.852;9.718;2022-07-04T06:23:44;7.80;;;5.60;;
7418;SDS011;3751;51.852;9.718;2022-07-04T06:26:11;8.47;;;5.57;;
7418;SDS011;3751;51.852;9.718;2022-07-04T06:28:37;5.00;;;4.60;;
7418;SDS011;3751;51.852;9.718;2022-07-04T06:31:03;5.30;;;4.20;;
7418;SDS011;3751;51.852;9.718;2022-07-04T06:33:29;11.53;;;5.43;;
7418;SDS011;3751;51.852;9.718;2022-07-04T06:35:55;6.47;;;4.70;;
7418;SDS011;3751;51.852;9.718;2022-07-04T06:38:25;8.77;;;5.37;;
7418;SDS011;3751;51.852;9.718;2022-07-04T06:40:56;7.30;;;4.47;;
7418;SDS011;3751;51.852;9.718;2022-07-04T06:43:22;14.20;;;5.30;;
7418;SDS011;3751;51.852;9.718;2022-07-04T06:45:49;5.90;;;4.30;;
7418;SDS011;3751;51.852;9.718;2022-07-04T06:48:15;4.93;;;4.53;;
7418;SDS011;3751;51.852;9.718;2022-07-04T06:50:41;8.17;;;4.50;;
7418;SDS011;3751;51.852;9.718;2022-07-04T06:53:08;5.67;;;4.83;;
7418;SDS011;3751;51.852;9.718;2022-07-04T06:55:38;5.73;;;4.10;;
7418;SDS011;3751;51.852;9.718;2022-07-04T06:58:04;7.40;;;4.50;;
7418;SDS011;3751;51.852;9.718;2022-07-04T07:00:31;5.07;;;4.57;;
7418;SDS011;3751;51.852;9.718;2022-07-04T07:02:57;4.80;;;4.00;;
7418;SDS011;3751;51.852;9.718;2022-07-04T07:05:24;6.47;;;4.37;;
7418;SDS011;3751;51.852;9.718;2022-07-04T07:07:50;8.77;;;4.47;;
7418;SDS011;3751;51.852;9.718;2022-07-04T07:10:16;4.70;;;4.20;;
7418;SDS011;3751;51.852;9.718;2022-07-04T07:12:42;6.30;;;4.03;;
7418;SDS011;3751;51.852;9.718;2022-07-04T07:15:08;6.27;;;3.67;;
7418;SDS011;3751;51.852;9.718;2022-07-04T07:17:34;11.63;;;5.00;;
7418;SDS011;3751;51.852;9.718;2022-07-04T07:20:00;4.07;;;3.57;;
7418;SDS011;3751;51.852;9.718;2022-07-04T07:22:26;4.90;;;3.90;;
7418;SDS011;3751;51.852;9.718;2022-07-04T07:24:52;6.30;;;3.47;;
7418;SDS011;3751;51.852;9.718;2022-07-04T07:27:18;4.47;;;3.70;;
7418;SDS011;3751;51.852;9.718;2022-07-04T07:29:44;5.27;;;4.00;;
7418;SDS011;3751;51.852;9.718;2022-07-04T07:32:10;8.57;;;4.40;;
7418;SDS011;3751;51.852;9.718;2022-07-04T07:34:36;6.67;;;4.20;;
7418;SDS011;3751;51.852;9.718;2022-07-04T07:37:02;4.27;;;3.40;;
7418;SDS011;3751;51.852;9.718;2022-07-04T07:39:28;5.63;;;3.47;;
7418;SDS011;3751;51.852;9.718;2022-07-04T07:41:54;4.47;;;3.60;;
7418;SDS011;3751;51.852;9.718;2022-07-04T07:44:20;3.97;;;3.10;;
7418;SDS011;3751;51.852;9.718;2022-07-04T07:46:46;4.73;;;3.40;;
7418;SDS011;3751;51.852;9.718;2022-07-04T07:49:12;3.17;;;2.77;;
7418;SDS011;3751;51.852;9.718;2022-07-04T07:51:38;4.10;;;2.97;;
7418;SDS011;3751;51.852;9.718;2022-07-04T07:54:04;3.20;;;2.90;;
7418;SDS011;3751;51.852;9.718;2022-07-04T07:56:30;6.03;;;3.23;;
7418;SDS011;3751;51.852;9.718;2022-07-04T07:58:56;7.47;;;3.20;;
7418;SDS011;3751;51.852;9.718;2022-07-04T08:01:22;4.20;;;3.17;;
7418;SDS011;3751;51.852;9.718;2022-07-04T08:03:48;5.13;;;3.30;;
7418;SDS011;3751;51.852;9.718;2022-07-04T08:06:33;4.13;;;3.73;;
7418;SDS011;3751;51.852;9.718;2022-07-04T08:08:59;3.77;;;3.30;;
7418;SDS011;3751;51.852;9.718;2022-07-04T08:11:25;6.40;;;3.60;;
7418;SDS011;3751;51.852;9.718;2022-07-04T08:13:51;5.80;;;3.43;;
7418;SDS011;3751;51.852;9.718;2022-07-04T08:16:18;4.00;;;3.10;;
7418;SDS011;3751;51.852;9.718;2022-07-04T08:18:44;4.70;;;3.57;;
7418;SDS011;3751;51.852;9.718;2022-07-04T08:21:10;4.87;;;3.13;;
7418;SDS011;3751;51.852;9.718;2022-07-04T08:23:38;5.43;;;3.43;;
7418;SDS011;3751;51.852;9.718;2022-07-04T08:26:04;3.60;;;3.30;;
7418;SDS011;3751;51.852;9.718;2022-07-04T08:28:30;3.10;;;2.80;;
7418;SDS011;3751;51.852;9.718;2022-07-04T08:30:56;3.90;;;2.97;;
7418;SDS011;3751;51.852;9.718;2022-07-04T08:33:23;5.20;;;3.10;;
7418;SDS011;3751;51.852;9.718;2022-07-04T08:35:48;4.13;;;3.37;;
7418;SDS011;3751;51.852;9.718;2022-07-04T08:38:15;2.90;;;2.60;;
7418;SDS011;3751;51.852;9.718;2022-07-04T08:40:41;5.10;;;3.23;;
7418;SDS011;3751;51.852;9.718;2022-07-04T08:43:07;2.83;;;2.57;;
7418;SDS011;3751;51.852;9.718;2022-07-04T08:45:35;3.77;;;2.87;;
7418;SDS011;3751;51.852;9.718;2022-07-04T08:48:03;4.30;;;3.00;;
7418;SDS011;3751;51.852;9.718;2022-07-04T08:50:30;4.10;;;3.17;;
7418;SDS011;3751;51.852;9.718;2022-07-04T08:53:01;4.27;;;2.57;;
7418;SDS011;3751;51.852;9.718;2022-07-04T08:55:27;4.40;;;2.70;;
7418;SDS011;3751;51.852;9.718;2022-07-04T08:58:12;4.00;;;2.50;;
7418;SDS011;3751;51.852;9.718;2022-07-04T09:00:54;4.07;;;2.43;;
7418;SDS011;3751;51.852;9.718;2022-07-04T09:03:20;2.83;;;2.20;;
7418;SDS011;3751;51.852;9.718;2022-07-04T09:05:48;3.40;;;1.93;;
7418;SDS011;3751;51.852;9.718;2022-07-04T09:08:14;2.27;;;2.07;;
7418;SDS011;3751;51.852;9.718;2022-07-04T09:10:40;3.07;;;1.97;;
7418;SDS011;3751;51.852;9.718;2022-07-04T09:13:08;3.57;;;2.37;;
7418;SDS011;3751;51.852;9.718;2022-07-04T09:15:35;2.70;;;2.10;;
7418;SDS011;3751;51.852;9.718;2022-07-04T09:18:02;2.80;;;2.07;;
7418;SDS011;3751;51.852;9.718;2022-07-04T09:20:29;4.00;;;2.50;;
7418;SDS011;3751;51.852;9.718;2022-07-04T09:22:56;2.53;;;2.33;;
7418;SDS011;3751;51.852;9.718;2022-07-04T09:25:22;4.27;;;2.50;;
7418;SDS011;3751;51.852;9.718;2022-07-04T09:27:49;3.70;;;2.10;;
7418;SDS011;3751;51.852;9.718;2022-07-04T09:30:17;4.63;;;2.33;;
7418;SDS011;3751;51.852;9.718;2022-07-04T09:32:44;1.90;;;1.80;;
7418;SDS011;3751;51.852;9.718;2022-07-04T09:35:11;2.63;;;2.03;;
7418;SDS011;3751;51.852;9.718;2022-07-04T09:37:41;2.17;;;1.97;;
7418;SDS011;3751;51.852;9.718;2022-07-04T09:40:08;2.37;;;2.10;;
7418;SDS011;3751;51.852;9.718;2022-07-04T09:42:38;4.63;;;2.00;;
7418;SDS011;3751;51.852;9.718;2022-07-04T09:45:05;5.00;;;2.20;;
7418;SDS011;3751;51.852;9.718;2022-07-04T09:47:32;6.70;;;2.20;;
7418;SDS011;3751;51.852;9.718;2022-07-04T09:52:30;2.47;;;2.00;;
7418;SDS011;3751;51.852;9.718;2022-07-04T09:55:00;4.30;;;2.37;;
7418;SDS011;3751;51.852;9.718;2022-07-04T09:57:28;3.30;;;2.13;;
7418;SDS011;3751;51.852;9.718;2022-07-04T09:59:55;2.60;;;1.97;;
7418;SDS011;3751;51.852;9.718;2022-07-04T10:02:21;3.20;;;1.73;;
7418;SDS011;3751;51.852;9.718;2022-07-04T10:04:49;2.73;;;2.17;;
7418;SDS011;3751;51.852;9.718;2022-07-04T10:09:58;3.87;;;2.10;;
7418;SDS011;3751;51.852;9.718;2022-07-04T10:12:24;2.30;;;1.77;;
7418;SDS011;3751;51.852;9.718;2022-07-04T10:14:51;2.20;;;1.90;;
7418;SDS011;3751;51.852;9.718;2022-07-04T10:17:17;2.73;;;1.80;;
7418;SDS011;3751;51.852;9.718;2022-07-04T10:19:43;3.33;;;1.93;;
7418;SDS011;3751;51.852;9.718;2022-07-04T10:22:09;3.07;;;1.57;;
7418;SDS011;3751;51.852;9.718;2022-07-04T10:24:36;2.57;;;1.97;;
7418;SDS011;3751;51.852;9.718;2022-07-04T10:27:02;1.70;;;1.60;;
7418;SDS011;3751;51.852;9.718;2022-07-04T10:29:28;3.07;;;2.10;;
7418;SDS011;3751;51.852;9.718;2022-07-04T10:31:54;7.03;;;1.97;;
7418;SDS011;3751;51.852;9.718;2022-07-04T10:34:20;3.00;;;1.80;;
7418;SDS011;3751;51.852;9.718;2022-07-04T10:36:52;3.80;;;1.80;;
7418;SDS011;3751;51.852;9.718;2022-07-04T10:39:22;2.10;;;1.70;;
7418;SDS011;3751;51.852;9.718;2022-07-04T10:41:56;2.20;;;2.00;;
7418;SDS011;3751;51.852;9.718;2022-07-04T10:44:23;2.30;;;2.10;;
7418;SDS011;3751;51.852;9.718;2022-07-04T10:46:51;2.40;;;1.70;;
7418;SDS011;3751;51.852;9.718;2022-07-04T10:49:19;1.97;;;1.77;;
7418;SDS011;3751;51.852;9.718;2022-07-04T10:51:55;3.00;;;1.60;;
7418;SDS011;3751;51.852;9.718;2022-07-04T10:56:49;3.37;;;1.80;;
7418;SDS011;3751;51.852;9.718;2022-07-04T10:59:16;3.03;;;1.80;;
7418;SDS011;3751;51.852;9.718;2022-07-04T11:01:50;4.40;;;1.73;;
7418;SDS011;3751;51.852;9.718;2022-07-04T11:07:01;2.50;;;1.83;;
7418;SDS011;3751;51.852;9.718;2022-07-04T11:09:27;3.30;;;1.63;;
7418;SDS011;3751;51.852;9.718;2022-07-04T11:12:00;3.30;;;1.77;;
7418;SDS011;3751;51.852;9.718;2022-07-04T11:14:42;3.23;;;1.67;;
7418;SDS011;3751;51.852;9.718;2022-07-04T11:17:12;3.20;;;1.77;;
7418;SDS011;3751;51.852;9.718;2022-07-04T11:19:39;1.83;;;1.60;;
7418;SDS011;3751;51.852;9.718;2022-07-04T11:22:06;2.70;;;1.90;;
7418;SDS011;3751;51.852;9.718;2022-07-04T11:24:32;3.90;;;1.90;;
7418;SDS011;3751;51.852;9.718;2022-07-04T11:26:58;1.87;;;1.70;;
7418;SDS011;3751;51.852;9.718;2022-07-04T11:29:25;3.53;;;2.00;;
7418;SDS011;3751;51.852;9.718;2022-07-04T11:31:51;2.03;;;1.60;;
7418;SDS011;3751;51.852;9.718;2022-07-04T11:34:18;1.80;;;1.70;;
7418;SDS011;3751;51.852;9.718;2022-07-04T11:36:45;2.70;;;2.00;;
7418;SDS011;3751;51.852;9.718;2022-07-04T11:39:12;1.93;;;1.50;;
7418;SDS011;3751;51.852;9.718;2022-07-04T11:41:42;2.10;;;1.40;;
7418;SDS011;3751;51.852;9.718;2022-07-04T11:44:28;2.20;;;1.80;;
7418;SDS011;3751;51.852;9.718;2022-07-04T11:47:56;1.87;;;1.77;;
7418;SDS011;3751;51.852;9.718;2022-07-04T11:50:03;1.93;;;1.63;;
7418;SDS011;3751;51.852;9.718;2022-07-04T11:52:31;1.40;;;1.30;;
7418;SDS011;3751;51.852;9.718;2022-07-04T11:55:05;1.87;;;1.50;;
7418;SDS011;3751;51.852;9.718;2022-07-04T11:57:35;4.10;;;1.63;;
7418;SDS011;3751;51.852;9.718;2022-07-04T12:02:28;1.73;;;1.63;;
7418;SDS011;3751;51.852;9.718;2022-07-04T12:04:55;1.57;;;1.40;;
7418;SDS011;3751;51.852;9.718;2022-07-04T12:07:23;1.90;;;1.70;;
7418;SDS011;3751;51.852;9.718;2022-07-04T12:09:49;3.63;;;1.60;;
7418;SDS011;3751;51.852;9.718;2022-07-04T12:12:15;1.53;;;1.43;;
7418;SDS011;3751;51.852;9.718;2022-07-04T12:15:02;1.70;;;1.30;;
7418;SDS011;3751;51.852;9.718;2022-07-04T12:17:35;1.77;;;1.50;;
7418;SDS011;3751;51.852;9.718;2022-07-04T12:20:03;2.50;;;1.50;;
7418;SDS011;3751;51.852;9.718;2022-07-04T12:22:43;2.83;;;1.90;;
7418;SDS011;3751;51.852;9.718;2022-07-04T12:28:09;3.33;;;1.80;;
7418;SDS011;3751;51.852;9.718;2022-07-04T12:30:39;1.63;;;1.53;;
7418;SDS011;3751;51.852;9.718;2022-07-04T12:33:06;1.60;;;1.30;;
7418;SDS011;3751;51.852;9.718;2022-07-04T12:38:12;2.63;;;1.40;;
7418;SDS011;3751;51.852;9.718;2022-07-04T12:40:52;3.37;;;1.80;;
7418;SDS011;3751;51.852;9.718;2022-07-04T12:43:18;2.63;;;1.80;;
7418;SDS011;3751;51.852;9.718;2022-07-04T12:45:46;2.43;;;1.40;;
7418;SDS011;3751;51.852;9.718;2022-07-04T12:48:13;1.80;;;1.57;;
7418;SDS011;3751;51.852;9.718;2022-07-04T12:50:40;2.43;;;1.93;;
7418;SDS011;3751;51.852;9.718;2022-07-04T12:53:05;2.93;;;2.10;;
7418;SDS011;3751;51.852;9.718;2022-07-04T12:55:31;2.07;;;1.60;;
7418;SDS011;3751;51.852;9.718;2022-07-04T12:57:57;4.50;;;1.40;;
7418;SDS011;3751;51.852;9.718;2022-07-04T13:00:23;1.87;;;1.30;;
7418;SDS011;3751;51.852;9.718;2022-07-04T13:02:49;1.70;;;1.40;;
7418;SDS011;3751;51.852;9.718;2022-07-04T13:05:15;3.63;;;1.87;;
7418;SDS011;3751;51.852;9.718;2022-07-04T13:07:41;4.03;;;1.60;;
7418;SDS011;3751;51.852;9.718;2022-07-04T13:10:07;2.70;;;1.60;;
7418;SDS011;3751;51.852;9.718;2022-07-04T13:12:34;2.03;;;1.70;;
7418;SDS011;3751;51.852;9.718;2022-07-04T13:14:59;1.97;;;1.53;;
7418;SDS011;3751;51.852;9.718;2022-07-04T13:17:26;3.10;;;1.60;;
7418;SDS011;3751;51.852;9.718;2022-07-04T13:19:52;2.30;;;1.40;;
7418;SDS011;3751;51.852;9.718;2022-07-04T13:22:19;2.07;;;1.50;;
7418;SDS011;3751;51.852;9.718;2022-07-04T13:24:45;2.37;;;1.50;;
7418;SDS011;3751;51.852;9.718;2022-07-04T13:27:11;1.70;;;1.43;;
7418;SDS011;3751;51.852;9.718;2022-07-04T13:29:37;2.07;;;1.30;;
7418;SDS011;3751;51.852;9.718;2022-07-04T13:32:03;1.70;;;1.50;;
7418;SDS011;3751;51.852;9.718;2022-07-04T13:34:30;1.30;;;1.20;;
7418;SDS011;3751;51.852;9.718;2022-07-04T13:36:56;1.53;;;1.40;;
7418;SDS011;3751;51.852;9.718;2022-07-04T13:39:22;1.80;;;1.17;;
7418;SDS011;3751;51.852;9.718;2022-07-04T13:41:48;2.10;;;1.63;;
7418;SDS011;3751;51.852;9.718;2022-07-04T13:44:14;2.23;;;1.60;;
7418;SDS011;3751;51.852;9.718;2022-07-04T13:46:41;3.00;;;1.50;;
7418;SDS011;3751;51.852;9.718;2022-07-04T13:49:08;1.30;;;1.20;;
7418;SDS011;3751;51.852;9.718;2022-07-04T13:51:34;1.53;;;1.43;;
7418;SDS011;3751;51.852;9.718;2022-07-04T13:54:01;1.30;;;1.20;;
7418;SDS011;3751;51.852;9.718;2022-07-04T13:56:27;1.50;;;1.20;;
7418;SDS011;3751;51.852;9.718;2022-07-04T13:58:53;1.50;;;1.40;;
7418;SDS011;3751;51.852;9.718;2022-07-04T14:01:20;1.50;;;1.27;;
7418;SDS011;3751;51.852;9.718;2022-07-04T14:03:47;2.50;;;1.33;;
7418;SDS011;3751;51.852;9.718;2022-07-04T14:06:13;1.60;;;1.17;;
7418;SDS011;3751;51.852;9.718;2022-07-04T14:08:40;1.83;;;1.27;;
7418;SDS011;3751;51.852;9.718;2022-07-04T14:11:06;1.53;;;1.30;;
7418;SDS011;3751;51.852;9.718;2022-07-04T14:13:32;1.50;;;1.37;;
7418;SDS011;3751;51.852;9.718;2022-07-04T14:15:58;3.80;;;1.30;;
7418;SDS011;3751;51.852;9.718;2022-07-04T14:18:25;3.83;;;1.83;;
7418;SDS011;3751;51.852;9.718;2022-07-04T14:20:51;2.40;;;1.63;;
7418;SDS011;3751;51.852;9.718;2022-07-04T14:23:17;3.00;;;1.60;;
7418;SDS011;3751;51.852;9.718;2022-07-04T14:26:03;1.40;;;1.20;;
7418;SDS011;3751;51.852;9.718;2022-07-04T14:28:30;2.13;;;1.40;;
7418;SDS011;3751;51.852;9.718;2022-07-04T14:30:56;2.17;;;1.43;;
7418;SDS011;3751;51.852;9.718;2022-07-04T14:33:22;1.70;;;1.20;;
7418;SDS011;3751;51.852;9.718;2022-07-04T14:35:48;1.50;;;1.30;;
7418;SDS011;3751;51.852;9.718;2022-07-04T14:38:14;1.93;;;1.60;;
7418;SDS011;3751;51.852;9.718;2022-07-04T14:40:41;1.70;;;1.43;;
7418;SDS011;3751;51.852;9.718;2022-07-04T14:43:10;1.87;;;1.40;;
7418;SDS011;3751;51.852;9.718;2022-07-04T14:45:36;2.50;;;1.33;;
7418;SDS011;3751;51.852;9.718;2022-07-04T14:48:03;2.23;;;1.53;;
7418;SDS011;3751;51.852;9.718;2022-07-04T14:50:29;1.73;;;1.40;;
7418;SDS011;3751;51.852;9.718;2022-07-04T14:52:55;1.87;;;1.53;;
7418;SDS011;3751;51.852;9.718;2022-07-04T14:55:21;2.90;;;2.60;;
7418;SDS011;3751;51.852;9.718;2022-07-04T14:57:47;2.57;;;1.60;;
7418;SDS011;3751;51.852;9.718;2022-07-04T15:00:13;2.47;;;1.87;;
7418;SDS011;3751;51.852;9.718;2022-07-04T15:02:39;1.77;;;1.30;;
7418;SDS011;3751;51.852;9.718;2022-07-04T15:05:05;4.30;;;1.87;;
7418;SDS011;3751;51.852;9.718;2022-07-04T15:07:32;1.70;;;1.50;;
7418;SDS011;3751;51.852;9.718;2022-07-04T15:09:59;2.03;;;1.70;;
7418;SDS011;3751;51.852;9.718;2022-07-04T15:12:25;3.00;;;1.40;;
7418;SDS011;3751;51.852;9.718;2022-07-04T15:14:51;3.30;;;1.53;;
7418;SDS011;3751;51.852;9.718;2022-07-04T15:17:17;3.87;;;1.57;;
7418;SDS011;3751;51.852;9.718;2022-07-04T15:19:43;1.97;;;1.53;;
7418;SDS011;3751;51.852;9.718;2022-07-04T15:22:27;4.30;;;1.73;;
7418;SDS011;3751;51.852;9.718;2022-07-04T15:25:12;2.40;;;1.50;;
7418;SDS011;3751;51.852;9.718;2022-07-04T15:27:38;1.87;;;1.40;;
7418;SDS011;3751;51.852;9.718;2022-07-04T15:30:04;6.60;;;1.73;;
7418;SDS011;3751;51.852;9.718;2022-07-04T15:32:30;2.63;;;1.40;;